createdAt,value
2018-11-04T00:04:02.676Z,10.50
2018-11-04T00:08:56.024Z,9.67
2018-11-04T00:13:49.645Z,10.23
2018-11-04T00:18:44.181Z,10.40
2018-11-04T00:23:37.810Z,10.82
2018-11-04T00:28:31.123Z,10.08
2018-11-04T00:33:24.499Z,10.00
2018-11-04T00:38:17.927Z,10.18
2018-11-04T00:43:11.221Z,10.72
2018-11-04T00:48:04.808Z,11.20
2018-11-04T00:52:58.182Z,11.30
2018-11-04T00:57:52.369Z,11.05
2018-11-04T01:02:46.926Z,11.63
2018-11-04T01:07:40.344Z,11.00
2018-11-04T01:12:35.140Z,11.00
2018-11-04T01:17:28.611Z,11.78
2018-11-04T01:22:21.986Z,11.73
2018-11-04T01:27:15.897Z,12.10
2018-11-04T01:32:09.255Z,12.30
2018-11-04T01:37:02.698Z,12.45
2018-11-04T01:41:56.136Z,11.97
2018-11-04T01:46:49.466Z,12.00
2018-11-04T01:51:43.374Z,13.00
2018-11-04T01:56:36.804Z,12.35
2018-11-04T02:01:30.179Z,12.00
2018-11-04T02:06:24.288Z,13.15
2018-11-04T02:11:18.251Z,13.00
2018-11-04T02:16:11.625Z,12.20
2018-11-04T02:21:05.873Z,12.40
2018-11-04T02:25:59.281Z,12.73
2018-11-04T02:30:52.606Z,12.45
2018-11-04T02:35:47.963Z,12.55
2018-11-04T02:40:41.238Z,12.63
2018-11-04T02:45:34.629Z,12.05
2018-11-04T02:50:27.954Z,11.15
2018-11-04T02:55:21.387Z,12.13
2018-11-04T03:00:15.023Z,12.37
2018-11-04T03:05:09.232Z,12.30
2018-11-04T03:10:02.611Z,11.55
2018-11-04T03:14:55.920Z,12.93
2018-11-04T03:19:49.347Z,12.13
2018-11-04T03:24:43.321Z,12.37
2018-11-04T03:29:36.628Z,11.83
2018-11-04T03:34:31.525Z,13.18
2018-11-04T03:39:24.862Z,12.82
2018-11-04T03:44:18.385Z,12.95
2018-11-04T03:49:11.769Z,13.65
2018-11-04T03:54:05.476Z,12.68
2018-11-04T03:58:59.141Z,13.75
2018-11-04T04:03:52.598Z,14.47
2018-11-04T04:08:45.977Z,13.38
2018-11-04T04:13:39.281Z,14.28
2018-11-04T04:18:32.653Z,13.72
2018-11-04T04:23:25.913Z,13.48
2018-11-04T04:28:19.176Z,14.55
2018-11-04T04:33:12.459Z,13.50
2018-11-04T04:38:06.169Z,14.80
2018-11-04T04:42:59.512Z,13.05
2018-11-04T04:47:52.922Z,12.88
2018-11-04T04:52:46.242Z,13.38
2018-11-04T04:57:39.483Z,14.05
2018-11-04T05:02:32.773Z,14.68
2018-11-04T05:07:26.156Z,14.00
2018-11-04T05:12:19.495Z,14.28
2018-11-04T05:17:12.831Z,15.05
2018-11-04T05:22:06.969Z,14.80
2018-11-04T05:27:00.266Z,15.18
2018-11-04T05:31:53.579Z,14.63
2018-11-04T05:36:46.846Z,15.70
2018-11-04T05:41:40.240Z,14.47
2018-11-04T05:46:33.731Z,16.00
2018-11-04T05:51:26.993Z,14.70
2018-11-04T05:56:20.820Z,14.15
2018-11-04T06:01:14.297Z,14.15
2018-11-04T06:06:07.581Z,14.85
2018-11-04T06:11:01.400Z,13.43
2018-11-04T06:15:54.793Z,13.43
2018-11-04T06:20:48.193Z,14.07
2018-11-04T06:25:41.522Z,13.88
2018-11-04T06:30:34.798Z,15.03
2018-11-04T06:35:28.112Z,14.05
2018-11-04T06:40:21.585Z,14.58
2018-11-04T06:45:14.958Z,15.60
2018-11-04T06:50:11.091Z,14.87
2018-11-04T06:55:05.701Z,15.15
2018-11-04T06:59:59.801Z,15.78
2018-11-04T07:04:53.095Z,15.83
2018-11-04T07:09:46.429Z,15.50
2018-11-04T07:14:39.734Z,16.48
2018-11-04T07:19:33.059Z,16.30
2018-11-04T07:24:26.569Z,15.05
2018-11-04T07:29:19.944Z,16.07
2018-11-04T07:34:13.339Z,16.85
2018-11-04T07:39:11.769Z,16.95
2018-11-04T07:44:05.346Z,16.48
2018-11-04T07:48:58.673Z,17.67
2018-11-04T07:53:51.956Z,17.12
2018-11-04T07:58:45.327Z,18.32
2018-11-04T08:03:38.613Z,16.50
2018-11-04T08:08:31.966Z,18.23
2018-11-04T08:13:25.321Z,18.02
2018-11-04T08:18:18.582Z,18.30
2018-11-04T08:23:12.095Z,18.77
2018-11-04T08:28:07.201Z,18.92
2018-11-04T08:33:01.111Z,19.60
2018-11-04T08:37:54.488Z,19.12
2018-11-04T08:42:48.345Z,19.62
2018-11-04T08:47:42.339Z,19.27
2018-11-04T08:52:35.751Z,18.65
2018-11-04T08:57:29.106Z,18.82
2018-11-04T09:02:22.472Z,19.65
2018-11-04T09:07:17.858Z,20.00
2018-11-04T09:12:11.231Z,18.45
2018-11-04T09:17:05.102Z,19.77
2018-11-04T09:21:58.682Z,20.25
2018-11-04T09:26:51.785Z,18.90
2018-11-04T09:31:45.469Z,20.10
2018-11-04T09:36:38.982Z,19.70
2018-11-04T09:41:32.740Z,18.95
2018-11-04T09:46:26.124Z,19.95
2018-11-04T09:51:19.471Z,18.80
2018-11-04T09:56:12.878Z,19.02
2018-11-04T10:01:07.023Z,19.95
2018-11-04T10:06:01.523Z,19.62
2018-11-04T10:10:54.831Z,20.45
2018-11-04T10:15:48.180Z,20.27
2018-11-04T10:20:42.029Z,19.75
2018-11-04T10:25:35.031Z,19.90
2018-11-04T10:30:28.454Z,21.02
2018-11-04T10:35:22.639Z,20.12
2018-11-04T10:40:15.975Z,20.45
2018-11-04T10:45:10.521Z,19.30
2018-11-04T10:50:04.402Z,20.45
2018-11-04T10:54:57.650Z,21.07
2018-11-04T10:59:51.336Z,20.77
2018-11-04T11:04:45.006Z,20.52
2018-11-04T11:09:38.957Z,20.55
2018-11-04T11:14:32.214Z,20.15
2018-11-04T11:19:26.937Z,20.77
2018-11-04T11:24:20.256Z,21.97
2018-11-04T11:29:13.569Z,20.80
2018-11-04T11:34:06.896Z,21.27
2018-11-04T11:39:00.237Z,21.02
2018-11-04T11:43:54.890Z,21.68
2018-11-04T11:48:48.399Z,21.10
2018-11-04T11:53:41.878Z,20.85
2018-11-04T11:58:35.525Z,21.75
2018-11-04T12:03:29.231Z,22.10
2018-11-04T12:08:22.502Z,22.25
2018-11-04T12:13:16.108Z,23.00
2018-11-04T12:18:09.465Z,21.23
2018-11-04T12:23:03.917Z,22.48
2018-11-04T12:27:58.074Z,21.57
2018-11-04T12:32:51.343Z,22.55
2018-11-04T12:37:44.780Z,22.50
2018-11-04T12:42:38.055Z,21.82
2018-11-04T12:47:31.383Z,22.13
2018-11-04T12:52:24.767Z,22.42
2018-11-04T12:57:18.127Z,22.45
2018-11-04T13:02:11.541Z,22.62
2018-11-04T13:07:17.912Z,22.62
2018-11-04T13:12:12.633Z,21.95
2018-11-04T13:17:06.183Z,22.02
2018-11-04T13:21:59.712Z,22.52
2018-11-04T13:27:03.063Z,22.02
2018-11-04T13:31:56.358Z,22.37
2018-11-04T13:36:49.987Z,21.48
2018-11-04T13:41:43.713Z,23.07
2018-11-04T13:46:37.335Z,22.37
2018-11-04T13:51:31.011Z,21.60
2018-11-04T13:56:25.439Z,22.02
2018-11-04T14:01:19.418Z,22.05
2018-11-04T14:06:12.852Z,22.20
2018-11-04T14:11:06.425Z,21.62
2018-11-04T14:16:00.507Z,22.80
2018-11-04T14:20:53.955Z,22.37
2018-11-04T14:25:47.423Z,22.25
2018-11-04T14:30:40.931Z,22.80
2018-11-04T14:35:35.507Z,22.32
2018-11-04T14:40:28.972Z,21.55
2018-11-04T14:45:22.612Z,21.70
2018-11-04T14:50:17.709Z,20.52
2018-11-04T14:55:11.196Z,21.40
2018-11-04T15:00:07.270Z,20.30
2018-11-04T15:05:00.651Z,20.30
2018-11-04T15:09:54.017Z,20.02
2018-11-04T15:14:47.591Z,20.15
2018-11-04T15:19:41.001Z,19.20
2018-11-04T15:24:34.349Z,20.00
2018-11-04T15:29:28.028Z,19.25
2018-11-04T15:34:21.531Z,19.25
2018-11-04T15:39:14.816Z,19.52
2018-11-04T15:44:08.956Z,20.55
2018-11-04T15:49:02.374Z,20.55
2018-11-04T15:53:55.761Z,19.52
2018-11-04T15:58:49.862Z,19.65
2018-11-04T16:03:43.845Z,19.20
2018-11-04T16:08:37.184Z,20.52
2018-11-04T16:13:30.550Z,20.05
2018-11-04T16:18:24.241Z,18.65
2018-11-04T16:23:17.484Z,20.00
2018-11-04T16:28:11.149Z,20.92
2018-11-04T16:33:04.715Z,19.67
2018-11-04T16:37:58.121Z,19.40
2018-11-04T16:42:51.710Z,20.35
2018-11-04T16:47:45.057Z,18.32
2018-11-04T16:52:38.337Z,18.95
2018-11-04T16:57:31.703Z,18.95
2018-11-04T17:02:24.991Z,19.77
2018-11-04T17:07:19.406Z,17.85
2018-11-04T17:12:12.713Z,18.65
2018-11-04T17:17:07.159Z,17.20
2018-11-04T17:22:00.600Z,17.37
2018-11-04T17:26:55.407Z,17.35
2018-11-04T17:31:48.829Z,17.35
2018-11-04T17:36:43.312Z,17.17
2018-11-04T17:41:36.708Z,16.95
2018-11-04T17:46:30.187Z,17.80
2018-11-04T17:51:23.567Z,17.62
2018-11-04T17:56:16.890Z,16.57
2018-11-04T18:01:10.227Z,17.10
2018-11-04T18:06:04.464Z,15.98
2018-11-04T18:10:57.836Z,16.90
2018-11-04T18:15:51.353Z,17.23
2018-11-04T18:20:44.805Z,17.52
2018-11-04T18:25:38.354Z,17.45
2018-11-04T18:30:31.674Z,17.40
2018-11-04T18:35:24.968Z,15.95
2018-11-04T18:40:18.800Z,15.38
2018-11-04T18:45:13.451Z,14.95
2018-11-04T18:50:08.347Z,15.05
2018-11-04T18:55:02.482Z,14.47
2018-11-04T18:59:55.792Z,15.40
2018-11-04T19:04:49.349Z,13.67
2018-11-04T19:09:42.616Z,14.15
2018-11-04T19:14:36.948Z,14.25
2018-11-04T19:19:30.390Z,13.68
2018-11-04T19:24:23.790Z,13.72
2018-11-04T19:29:17.071Z,14.25
2018-11-04T19:34:12.038Z,14.73
2018-11-04T19:39:09.769Z,12.58
2018-11-04T19:44:03.158Z,14.20
2018-11-04T19:48:56.575Z,14.03
2018-11-04T19:53:50.016Z,13.05
2018-11-04T19:58:43.423Z,13.05
2018-11-04T20:03:36.875Z,13.13
2018-11-04T20:08:30.273Z,13.98
2018-11-04T20:13:29.680Z,12.80
2018-11-04T20:18:28.681Z,13.00
2018-11-04T20:23:22.388Z,12.45
2018-11-04T20:28:15.841Z,11.75
2018-11-04T20:33:10.903Z,11.73
2018-11-04T20:38:05.586Z,12.35
2018-11-04T20:42:58.942Z,12.03
2018-11-04T20:47:58.133Z,12.25
2018-11-04T20:52:51.473Z,11.93
2018-11-04T20:57:50.265Z,11.97
2018-11-04T21:02:44.071Z,12.33
2018-11-04T21:07:37.493Z,11.63
2018-11-04T21:12:31.014Z,11.08
2018-11-04T21:17:25.021Z,11.55
2018-11-04T21:22:19.335Z,11.28
2018-11-04T21:27:12.687Z,11.60
2018-11-04T21:32:06.540Z,11.28
2018-11-04T21:36:59.898Z,11.57
2018-11-04T21:43:17.987Z,10.95
2018-11-04T21:48:12.948Z,11.28
2018-11-04T21:53:06.410Z,11.38
2018-11-04T21:58:02.454Z,11.78
2018-11-04T22:02:56.044Z,11.38
2018-11-04T22:07:49.237Z,11.13
2018-11-04T22:12:42.837Z,11.40
2018-11-04T22:17:38.740Z,11.05
2018-11-04T22:22:33.923Z,10.72
2018-11-04T22:27:27.256Z,11.00
2018-11-04T22:32:20.517Z,11.08
2018-11-04T22:37:13.791Z,10.78
2018-11-04T22:42:07.070Z,10.88
2018-11-04T22:47:00.365Z,11.05
2018-11-04T22:51:53.732Z,10.75
2018-11-04T22:56:49.204Z,10.88
2018-11-04T23:01:42.513Z,11.35
2018-11-04T23:06:36.923Z,11.20
2018-11-04T23:11:32.584Z,9.90
2018-11-04T23:16:26.009Z,9.83
2018-11-04T23:21:19.287Z,9.70
2018-11-04T23:26:12.531Z,10.13
2018-11-04T23:31:05.855Z,9.60
2018-11-04T23:36:00.933Z,9.95
2018-11-04T23:40:54.247Z,9.98
2018-11-04T23:45:52.505Z,10.13
2018-11-04T23:50:50.448Z,9.40
2018-11-04T23:55:44.339Z,10.50
